Time;durP1;ratioP1;P1;durP2;ratioP2;P2;SDS_P1;SDS_P2;PMS_P1;PMS_P2;Temp;Humidity;BMP_temperature;BMP_pressure;BME280_temperature;BME280_humidity;BME280_pressure;Samples;Min_cycle;Max_cycle;Signal;HPM_P1;HPM_P2
2023/04/07 00:01:51;;;;;;;;;5.33;3.00;;;;;10.78;97.59;101280.22;5080558;28;45457;-78
2023/04/07 00:04:17;;;;;;;;;3.67;3.67;;;;;10.75;97.20;101275.22;5061638;28;48871;-77
2023/04/07 00:06:42;;;;;;;;;6.33;5.00;;;;;10.69;97.49;101274.03;5080485;28;45645;-78
2023/04/07 00:09:09;;;;;;;;;3.00;3.00;;;;;10.70;98.24;101287.19;5062424;28;47539;-77
2023/04/07 00:11:35;;;;;;;;;4.00;2.67;;;;;10.52;98.35;101268.69;5080787;28;45335;-77
2023/04/07 00:14:00;;;;;;;;;2.33;2.33;;;;;10.61;100.00;101280.16;5080773;28;45335;-77
2023/04/07 00:16:26;;;;;;;;;2.00;2.00;;;;;10.54;100.00;101281.81;5080186;28;55420;-77
2023/04/07 00:18:51;;;;;;;;;3.33;3.00;;;;;10.57;100.00;101278.81;5080340;28;45330;-77
2023/04/07 00:21:16;;;;;;;;;4.00;4.00;;;;;10.59;100.00;101274.16;5080553;28;45334;-77
2023/04/07 00:23:42;;;;;;;;;5.00;5.00;;;;;10.73;100.00;101278.03;5062376;28;45354;-76
2023/04/07 00:26:07;;;;;;;;;6.33;5.00;;;;;10.73;100.00;101265.59;5080322;28;45434;-77
2023/04/07 00:28:33;;;;;;;;;4.33;4.33;;;;;10.82;100.00;101263.78;5080079;28;46098;-78
2023/04/07 00:30:58;;;;;;;;;5.00;5.00;;;;;10.93;100.00;101265.28;5080399;28;45211;-77
2023/04/07 00:33:23;;;;;;;;;6.67;5.67;;;;;10.95;100.00;101252.66;5079002;28;45184;-77
2023/04/07 00:35:49;;;;;;;;;7.00;6.33;;;;;11.05;100.00;101263.13;5080002;28;46800;-77
2023/04/07 00:38:14;;;;;;;;;5.00;5.00;;;;;11.15;100.00;101270.97;5080299;27;45384;-77
2023/04/07 00:40:39;;;;;;;;;5.33;4.67;;;;;11.16;100.00;101275.28;5078615;28;52811;-77
2023/04/07 00:43:05;;;;;;;;;4.67;4.00;;;;;11.12;100.00;101273.97;5078938;28;45224;-77
2023/04/07 00:45:30;;;;;;;;;4.67;4.00;;;;;11.07;100.00;101276.25;5080178;28;45235;-77
2023/04/07 00:47:57;;;;;;;;;3.67;3.33;;;;;11.03;100.00;101275.78;5080058;28;46490;-77
2023/04/07 00:50:23;;;;;;;;;4.00;3.00;;;;;10.98;100.00;101268.28;5080074;27;45327;-77
2023/04/07 00:52:49;;;;;;;;;3.00;3.00;;;;;10.99;100.00;101267.28;5080302;27;45306;-77
2023/04/07 00:55:14;;;;;;;;;4.00;4.00;;;;;10.99;100.00;101267.28;5078677;28;46847;-77
2023/04/07 00:57:40;;;;;;;;;4.00;4.00;;;;;10.94;100.00;101258.13;5080015;27;45329;-77
2023/04/07 01:00:06;;;;;;;;;3.33;2.67;;;;;10.90;100.00;101264.78;5078765;28;45630;-77
2023/04/07 01:02:47;;;;;;;;;4.00;3.67;;;;;10.83;100.00;101259.28;5077447;28;45403;-77
2023/04/07 01:05:17;;;;;;;;;1.00;0.00;;;;;10.73;100.00;101243.47;5079884;27;45416;-76
2023/04/07 01:08:08;;;;;;;;;4.00;4.00;;;;;10.78;100.00;101257.13;5078436;28;48242;-77
2023/04/07 01:10:52;;;;;;;;;3.00;3.00;;;;;10.73;100.00;101259.44;5079851;27;45405;-77
2023/04/07 01:13:35;;;;;;;;;4.67;1.67;;;;;10.66;100.00;101258.41;5080070;28;45741;-77
2023/04/07 01:16:06;;;;;;;;;5.00;3.67;;;;;10.54;100.00;101252.56;5079698;27;45342;-77
2023/04/07 01:18:34;;;;;;;;;2.67;2.67;;;;;10.56;100.00;101262.03;5079622;27;46208;-77
2023/04/07 01:21:06;;;;;;;;;5.00;4.33;;;;;10.50;100.00;101256.56;5078115;28;45324;-77
2023/04/07 01:23:46;;;;;;;;;5.67;4.00;;;;;10.35;100.00;101249.97;5079973;27;45349;-76
2023/04/07 01:26:19;;;;;;;;;5.33;5.33;;;;;10.45;100.00;101268.47;5078262;28;46155;-77
2023/04/07 01:28:56;;;;;;;;;4.00;4.00;;;;;10.42;100.00;101255.47;5079110;27;46165;-77
2023/04/07 01:31:25;;;;;;;;;5.00;5.00;;;;;10.33;100.00;101257.28;5079621;28;45240;-77
2023/04/07 01:33:54;;;;;;;;;4.00;4.00;;;;;10.31;100.00;101256.63;5079549;28;45418;-77
2023/04/07 01:36:20;;;;;;;;;6.00;5.00;;;;;10.24;100.00;101247.63;5079108;28;45573;-77
2023/04/07 01:38:47;;;;;;;;;3.00;3.00;;;;;10.27;100.00;101257.94;5079268;28;45306;-77
2023/04/07 01:41:14;;;;;;;;;4.00;4.00;;;;;10.33;100.00;101272.41;5079213;28;45395;-77
2023/04/07 01:43:41;;;;;;;;;5.33;5.33;;;;;10.27;100.00;101265.91;5079537;28;45347;-77
2023/04/07 01:46:07;;;;;;;;;6.00;5.00;;;;;10.23;100.00;101267.19;5079219;28;45292;-77
2023/04/07 01:48:35;;;;;;;;;4.00;3.67;;;;;10.47;100.00;101274.47;5079028;28;45280;-77
2023/04/07 01:51:03;;;;;;;;;5.33;4.67;;;;;10.52;100.00;101259.88;5060844;28;45853;-77
2023/04/07 01:53:29;;;;;;;;;5.00;5.00;;;;;10.60;100.00;101262.56;5079424;28;45311;-77
2023/04/07 01:55:54;;;;;;;;;6.00;6.00;;;;;10.68;100.00;101267.03;5079145;28;45437;-76
2023/04/07 01:58:20;;;;;;;;;5.00;4.67;;;;;10.70;100.00;101267.72;5079134;28;46435;-77
2023/04/07 02:00:45;;;;;;;;;7.00;4.00;;;;;10.76;100.00;101264.44;5079314;28;45371;-77
2023/04/07 02:03:19;;;;;;;;;5.00;5.00;;;;;10.79;100.00;101256.13;5079178;28;45252;-77
2023/04/07 02:05:51;;;;;;;;;6.00;5.00;;;;;10.56;100.00;101246.09;5060566;28;47215;-77
2023/04/07 02:08:18;;;;;;;;;3.00;3.00;;;;;10.58;100.00;101254.75;5079119;28;46642;-76
2023/04/07 02:10:47;;;;;;;;;3.33;3.33;;;;;10.67;100.00;101255.59;5060858;28;45317;-77
2023/04/07 02:13:17;;;;;;;;;4.00;4.00;;;;;10.64;100.00;101244.44;5079202;28;45144;-77
2023/04/07 02:15:46;;;;;;;;;4.67;4.67;;;;;10.68;100.00;101251.09;5082342;28;45483;-77
2023/04/07 02:18:13;;;;;;;;;3.00;2.67;;;;;10.71;100.00;101250.78;5063985;28;47323;-77
2023/04/07 02:20:41;;;;;;;;;3.33;3.33;;;;;10.71;100.00;101242.78;5063873;28;45233;-77
2023/04/07 02:23:10;;;;;;;;;5.00;4.00;;;;;10.78;100.00;101256.28;5064259;28;45241;-76
2023/04/07 02:25:37;;;;;;;;;4.67;4.00;;;;;10.78;100.00;101258.94;5082350;28;45425;-78
2023/04/07 02:28:03;;;;;;;;;5.00;4.00;;;;;10.75;100.00;101251.28;5082126;28;45303;-78
2023/04/07 02:30:29;;;;;;;;;3.67;3.67;;;;;10.76;100.00;101255.59;5078941;28;45268;-77
2023/04/07 02:32:55;;;;;;;;;3.33;3.33;;;;;10.76;100.00;101247.63;5080882;28;45391;-77
2023/04/07 02:35:20;;;;;;;;;6.67;5.67;;;;;10.86;100.00;101253.63;5081914;27;45223;-77
2023/04/07 02:37:46;;;;;;;;;4.00;3.33;;;;;10.85;100.00;101246.66;5082280;27;45246;-77
2023/04/07 02:40:12;;;;;;;;;4.67;4.00;;;;;10.88;100.00;101248.16;5082250;27;45620;-77
2023/04/07 02:42:38;;;;;;;;;5.00;3.33;;;;;10.92;100.00;101250.31;5080892;28;45410;-77
2023/04/07 02:45:04;;;;;;;;;5.00;4.00;;;;;10.95;100.00;101259.78;5080675;28;45859;-77
2023/04/07 02:47:30;;;;;;;;;5.00;4.00;;;;;10.98;100.00;101259.47;5081988;27;45986;-77
2023/04/07 02:49:55;;;;;;;;;6.00;4.00;;;;;10.95;100.00;101247.34;5091805;27;45480;-77
2023/04/07 02:52:20;;;;;;;;;4.00;4.00;;;;;10.96;100.00;101241.00;5102560;27;45377;-77
2023/04/07 02:54:46;;;;;;;;;4.00;3.67;;;;;11.00;100.00;101249.50;5083993;27;47045;-77
2023/04/07 02:57:12;;;;;;;;;6.33;6.00;;;;;11.04;100.00;101250.84;5102359;27;45369;-77
2023/04/07 02:59:38;;;;;;;;;6.00;5.00;;;;;11.05;100.00;101246.34;5083881;27;45269;-77
2023/04/07 03:02:03;;;;;;;;;7.00;6.67;;;;;11.04;100.00;101244.69;5102418;27;45269;-77
2023/04/07 03:04:28;;;;;;;;;8.00;5.00;;;;;11.12;100.00;101250.00;5102410;27;45147;-76
2023/04/07 03:06:55;;;;;;;;;8.67;6.67;;;;;11.07;100.00;101245.19;5102137;27;45948;-77
2023/04/07 03:09:20;;;;;;;;;5.00;4.00;;;;;11.21;100.00;101248.19;5102249;27;45459;-77
2023/04/07 03:11:46;;;;;;;;;9.00;7.00;;;;;11.21;100.00;101242.88;5102353;27;45302;-77
2023/04/07 03:14:11;;;;;;;;;10.33;7.00;;;;;11.16;100.00;101240.69;5083652;27;46437;-77
2023/04/07 03:16:36;;;;;;;;;5.00;4.00;;;;;11.17;100.00;101239.72;5101989;27;45362;-77
2023/04/07 03:19:02;;;;;;;;;4.67;4.67;;;;;11.17;100.00;101239.72;5101849;27;45612;-77
2023/04/07 03:21:27;;;;;;;;;5.00;4.00;;;;;11.18;100.00;101230.72;5102105;27;45370;-78
2023/04/07 03:23:53;;;;;;;;;6.00;4.67;;;;;11.20;100.00;101242.03;5083663;27;46523;-77
2023/04/07 03:26:18;;;;;;;;;6.33;5.67;;;;;11.27;100.00;101262.66;5082438;27;47926;-77
2023/04/07 03:28:44;;;;;;;;;7.00;6.00;;;;;11.24;100.00;101253.19;5097680;27;49159;-77
2023/04/07 03:31:09;;;;;;;;;6.00;5.00;;;;;11.21;100.00;101245.53;5081524;28;45338;-77
2023/04/07 03:33:34;;;;;;;;;7.33;7.33;;;;;11.28;100.00;101253.69;5081318;28;45497;-77
2023/04/07 03:36:00;;;;;;;;;6.67;6.67;;;;;11.29;100.00;101247.38;5080964;28;45630;-77
2023/04/07 03:38:25;;;;;;;;;6.00;6.00;;;;;11.32;100.00;101247.03;5063044;28;45374;-76
2023/04/07 03:40:51;;;;;;;;;6.33;5.33;;;;;11.32;100.00;101249.69;5081416;28;45386;-77
2023/04/07 03:43:16;;;;;;;;;11.00;9.00;;;;;11.30;100.00;101243.69;5081220;28;45361;-76
2023/04/07 03:45:41;;;;;;;;;8.67;7.67;;;;;11.28;100.00;101251.03;5081094;28;46485;-77
2023/04/07 03:48:11;;;;;;;;;10.67;10.00;;;;;11.32;100.00;101249.69;5062681;28;46262;-77
2023/04/07 03:50:40;;;;;;;;;7.67;6.00;;;;;11.28;100.00;101261.69;5080954;28;45235;-77
2023/04/07 03:53:05;;;;;;;;;7.67;6.67;;;;;11.17;100.00;101242.38;5079957;28;45543;-77
2023/04/07 03:55:31;;;;;;;;;8.33;8.00;;;;;11.13;100.00;101246.34;5062580;28;47230;-76
2023/04/07 03:57:57;;;;;;;;;9.00;7.00;;;;;11.09;100.00;101245.88;5063036;28;45383;-77
2023/04/07 04:00:22;;;;;;;;;8.67;8.00;;;;;11.02;100.00;101236.88;5080927;28;45275;-77
2023/04/07 04:02:47;;;;;;;;;6.67;6.67;;;;;10.93;100.00;101238.69;5080893;28;45212;-77
2023/04/07 04:05:13;;;;;;;;;9.00;7.00;;;;;10.93;100.00;101240.53;5080672;28;45178;-77
2023/04/07 04:07:38;;;;;;;;;7.00;6.00;;;;;10.88;100.00;101240.16;5080779;28;45281;-77
2023/04/07 04:10:04;;;;;;;;;6.33;6.00;;;;;10.81;100.00;101242.66;5080840;28;45240;-77
2023/04/07 04:12:29;;;;;;;;;10.00;8.67;;;;;10.76;100.00;101251.13;5061553;28;47128;-77
2023/04/07 04:14:55;;;;;;;;;8.33;7.33;;;;;10.80;100.00;101251.63;5061319;28;47313;-77
2023/04/07 04:17:20;;;;;;;;;8.00;7.33;;;;;10.67;100.00;101237.00;5080020;28;51625;-77
2023/04/07 04:19:45;;;;;;;;;8.00;6.00;;;;;10.73;100.00;101254.97;5080627;28;48040;-77
2023/04/07 04:22:11;;;;;;;;;7.00;7.00;;;;;10.76;100.00;101259.09;5062202;28;45989;-77
2023/04/07 04:24:36;;;;;;;;;6.00;6.00;;;;;10.70;100.00;101251.78;5080546;28;45556;-78
2023/04/07 04:27:01;;;;;;;;;5.50;5.50;;;;;10.65;100.00;101249.59;5079970;28;55573;-77
2023/04/07 04:29:27;;;;;;;;;7.00;7.00;;;;;10.65;100.00;101251.44;5068634;28;45390;-77
2023/04/07 04:31:52;;;;;;;;;9.33;6.33;;;;;10.57;100.00;101258.38;5079123;28;45894;-77
2023/04/07 04:34:17;;;;;;;;;7.00;6.00;;;;;10.57;100.00;101268.19;5080269;28;51441;-77
2023/04/07 04:36:43;;;;;;;;;9.33;6.00;;;;;10.71;100.00;101270.22;5080024;28;53919;-79
2023/04/07 04:39:08;;;;;;;;;8.00;6.50;;;;;10.56;100.00;101274.47;5080721;27;45338;-78
2023/04/07 04:41:33;;;;;;;;;6.00;6.00;;;;;10.54;100.00;101284.47;5080674;27;45460;-78
2023/04/07 04:43:59;;;;;;;;;7.00;5.67;;;;;10.47;100.00;101284.25;5079451;28;47978;-77
2023/04/07 04:46:24;;;;;;;;;7.67;6.33;;;;;10.49;100.00;101284.94;5081261;27;45380;-77
2023/04/07 04:48:51;;;;;;;;;4.00;4.00;;;;;10.52;100.00;101286.44;5078906;28;45315;-77
2023/04/07 04:51:17;;;;;;;;;8.33;8.33;;;;;10.47;100.00;101287.75;5079941;27;45405;-77
2023/04/07 04:53:42;;;;;;;;;6.00;6.00;;;;;10.41;100.00;101274.22;5079578;28;45223;-79
2023/04/07 04:56:07;;;;;;;;;7.00;7.00;;;;;10.46;100.00;101296.72;5080272;28;45266;-77
2023/04/07 04:58:34;;;;;;;;;12.00;7.00;;;;;10.46;100.00;101291.41;5080695;28;45177;-79
2023/04/07 05:01:00;;;;;;;;;8.00;8.00;;;;;10.39;100.00;101282.41;5061985;28;46633;-77
2023/04/07 05:03:27;;;;;;;;;8.67;8.00;;;;;10.40;100.00;101293.84;5079480;28;45306;-76
2023/04/07 05:05:52;;;;;;;;;9.33;8.00;;;;;10.39;100.00;101294.84;5061747;28;46255;-78
2023/04/07 05:08:17;;;;;;;;;7.67;6.33;;;;;10.28;100.00;101293.28;5080158;28;45412;-77
2023/04/07 05:10:43;;;;;;;;;6.67;6.00;;;;;10.29;100.00;101309.06;5061748;28;45938;-77
2023/04/07 05:13:08;;;;;;;;;6.67;6.67;;;;;10.27;100.00;101311.06;5079758;28;45464;-77
2023/04/07 05:15:34;;;;;;;;;7.67;7.33;;;;;10.29;100.00;101317.03;5062196;28;45955;-78
2023/04/07 05:17:59;;;;;;;;;8.33;6.33;;;;;10.23;100.00;101304.38;5080049;28;45326;-76
2023/04/07 05:20:24;;;;;;;;;6.00;6.00;;;;;10.23;100.00;101309.69;5079846;28;45317;-78
2023/04/07 05:22:50;;;;;;;;;6.00;5.33;;;;;10.13;100.00;101295.69;5061195;28;48085;-77
2023/04/07 05:25:15;;;;;;;;;7.00;6.67;;;;;10.06;100.00;101292.84;5062019;28;49564;-76
2023/04/07 05:27:40;;;;;;;;;7.00;6.00;;;;;10.14;100.00;101308.81;5080841;28;45330;-76
2023/04/07 05:30:06;;;;;;;;;11.00;10.33;;;;;10.10;100.00;101291.53;5074110;28;45878;-76
2023/04/07 05:32:32;;;;;;;;;8.67;7.67;;;;;10.16;100.00;101306.00;5080386;27;45361;-76
2023/04/07 05:34:57;;;;;;;;;9.67;7.67;;;;;10.14;100.00;101295.53;5077216;28;53897;-77
2023/04/07 05:37:22;;;;;;;;;9.00;8.00;;;;;10.14;100.00;101297.38;5058711;28;45174;-76
2023/04/07 05:39:48;;;;;;;;;9.00;7.00;;;;;10.11;100.00;101290.53;5059238;28;45268;-76
2023/04/07 05:42:13;;;;;;;;;11.00;7.33;;;;;10.17;100.00;101302.34;5059441;28;45259;-76
2023/04/07 05:44:38;;;;;;;;;7.67;6.33;;;;;10.10;100.00;101286.22;5060203;28;45286;-77
2023/04/07 05:47:07;;;;;;;;;11.67;10.67;;;;;10.17;100.00;101305.00;5059684;28;45863;-77
2023/04/07 05:49:35;;;;;;;;;14.00;12.00;;;;;10.13;100.00;101293.88;5060739;28;45344;-78
2023/04/07 05:52:04;;;;;;;;;13.67;9.67;;;;;10.09;100.00;101296.00;5062479;28;47613;-78
2023/04/07 05:54:30;;;;;;;;;12.00;10.33;;;;;10.14;100.00;101300.84;5064005;28;45250;-79
2023/04/07 05:56:56;;;;;;;;;8.33;8.33;;;;;10.15;100.00;101304.34;5062778;28;45350;-78
2023/04/07 05:59:21;;;;;;;;;15.00;13.00;;;;;10.09;100.00;101300.50;5062673;28;45264;-79
2023/04/07 06:01:47;;;;;;;;;8.33;8.33;;;;;10.06;100.00;101308.78;5063085;28;45765;-79
2023/04/07 06:04:13;;;;;;;;;14.67;10.33;;;;;10.09;100.00;101313.78;5061546;28;45339;-78
2023/04/07 06:06:38;;;;;;;;;12.67;11.00;;;;;10.07;100.00;101315.75;5050261;28;45481;-78
2023/04/07 06:09:03;;;;;;;;;8.00;7.33;;;;;10.01;100.00;101317.22;5054277;28;52289;-80
2023/04/07 06:11:29;;;;;;;;;13.00;12.33;;;;;9.98;100.00;101318.38;5056826;28;51967;-79
2023/04/07 06:13:54;;;;;;;;;12.00;9.00;;;;;10.02;100.00;101323.34;5061071;28;45592;-79
2023/04/07 06:16:19;;;;;;;;;10.33;9.00;;;;;9.93;100.00;101314.50;5062382;28;45307;-80
2023/04/07 06:18:45;;;;;;;;;5.00;3.00;;;;;10.00;100.00;101326.19;5061965;28;45353;-79
2023/04/07 06:21:10;;;;;;;;;12.33;11.00;;;;;10.01;100.00;101330.50;5062033;28;46298;-80
2023/04/07 06:23:35;;;;;;;;;15.33;12.33;;;;;9.94;100.00;101322.31;5061906;28;52986;-80
2023/04/07 06:26:01;;;;;;;;;9.67;9.67;;;;;10.02;100.00;101336.63;5062400;28;45310;-79
2023/04/07 06:28:26;;;;;;;;;15.00;12.00;;;;;9.88;100.00;101314.97;5060515;28;46025;-79
2023/04/07 06:30:51;;;;;;;;;12.33;10.00;;;;;10.07;100.00;101344.97;5062089;28;46112;-79
2023/04/07 06:33:17;;;;;;;;;12.33;11.67;;;;;10.04;100.00;101348.78;5061639;28;45326;-79
2023/04/07 06:35:43;;;;;;;;;16.67;16.00;;;;;10.03;100.00;101343.63;5064761;28;45296;-80
2023/04/07 06:38:10;;;;;;;;;15.33;15.33;;;;;10.04;100.00;101350.59;5080647;28;45987;-79
2023/04/07 06:40:35;;;;;;;;;13.00;11.33;;;;;10.04;100.00;101355.91;5082213;27;46224;-79
2023/04/07 06:43:01;;;;;;;;;13.67;13.67;;;;;10.09;100.00;101353.63;5070795;28;45521;-79
2023/04/07 06:45:26;;;;;;;;;16.67;15.67;;;;;10.17;100.00;101358.97;5063430;28;45367;-81
2023/04/07 06:47:51;;;;;;;;;18.33;17.00;;;;;10.10;100.00;101357.94;5081429;28;45360;-80
2023/04/07 06:50:19;;;;;;;;;19.33;17.00;;;;;10.18;100.00;101359.81;5063542;28;52244;-81
2023/04/07 06:52:45;;;;;;;;;20.33;20.00;;;;;10.32;100.00;101382.31;5082800;28;45451;-83
2023/04/07 06:55:10;;;;;;;;;34.50;31.50;;;;;10.36;100.00;101376.53;5064074;28;45434;-80
2023/04/07 06:57:35;;;;;;;;;31.50;28.75;;;;;10.37;100.00;101372.06;5064170;28;45917;-80
2023/04/07 07:00:00;;;;;;;;;27.67;23.67;;;;;10.42;100.00;101376.91;5083805;28;46294;-79
2023/04/07 07:02:26;;;;;;;;;43.50;36.00;;;;;10.42;100.00;101388.34;5087949;28;45298;-79
2023/04/07 07:04:51;;;;;;;;;25.33;23.67;;;;;10.48;100.00;101381.63;5083421;28;45526;-80
2023/04/07 07:07:16;;;;;;;;;27.33;24.00;;;;;10.54;100.00;101380.97;5081609;28;45481;-80
2023/04/07 07:09:42;;;;;;;;;19.00;17.67;;;;;10.63;100.00;101381.03;5081234;28;58293;-80
2023/04/07 07:12:07;;;;;;;;;19.00;18.33;;;;;10.66;100.00;101383.38;5081895;28;45302;-80
2023/04/07 07:14:32;;;;;;;;;19.67;17.00;;;;;10.68;100.00;101382.19;5081606;28;47475;-80
2023/04/07 07:16:57;;;;;;;;;20.00;18.00;;;;;10.76;100.00;101383.22;5062868;28;51733;-80
2023/04/07 07:19:23;;;;;;;;;22.33;20.33;;;;;10.77;100.00;101382.25;5062902;28;48235;-80
2023/04/07 07:21:48;;;;;;;;;19.33;17.67;;;;;10.79;100.00;101377.59;5081484;28;45313;-80
2023/04/07 07:24:14;;;;;;;;;21.33;20.67;;;;;10.93;100.00;101387.63;5063415;28;45274;-80
2023/04/07 07:26:40;;;;;;;;;22.00;22.00;;;;;11.01;100.00;101396.63;5080611;28;45271;-79
2023/04/07 07:29:06;;;;;;;;;20.67;20.33;;;;;11.04;100.00;101386.50;5069566;28;46904;-80
2023/04/07 07:31:31;;;;;;;;;23.33;21.33;;;;;11.11;100.00;101392.00;5058889;28;45326;-81
2023/04/07 07:33:56;;;;;;;;;15.33;14.67;;;;;11.14;100.00;101382.88;5043236;28;45321;-79
2023/04/07 07:36:21;;;;;;;;;24.33;23.00;;;;;11.20;100.00;101391.03;5060141;28;54932;-80
2023/04/07 07:38:50;;;;;;;;;20.67;17.67;;;;;11.21;100.00;101389.19;5059409;28;46536;-79
2023/04/07 07:41:15;;;;;;;;;16.67;16.33;;;;;11.25;100.00;101379.88;5059398;28;45331;-80
2023/04/07 07:43:41;;;;;;;;;26.33;25.67;;;;;11.23;100.00;101380.06;5060611;28;45272;-80
2023/04/07 07:46:06;;;;;;;;;20.67;18.33;;;;;11.36;100.00;101384.94;5042424;28;46040;-79
2023/04/07 07:48:31;;;;;;;;;21.67;19.00;;;;;11.40;100.00;101376.63;5060367;28;45325;-80
2023/04/07 07:50:57;;;;;;;;;21.67;20.33;;;;;11.56;100.00;101395.28;5060589;28;45284;-80
2023/04/07 07:53:22;;;;;;;;;19.33;18.67;;;;;11.65;100.00;101400.59;5063851;28;45205;-79
2023/04/07 07:55:48;;;;;;;;;20.33;19.33;;;;;11.71;100.00;101398.09;5076967;28;45433;-79
2023/04/07 07:58:13;;;;;;;;;18.00;18.00;;;;;11.82;100.00;101404.09;5080428;28;45228;-81
2023/04/07 08:00:39;;;;;;;;;33.67;29.67;;;;;11.91;100.00;101412.94;5053838;28;45591;-80
2023/04/07 08:03:05;;;;;;;;;24.33;22.33;;;;;12.00;100.00;101410.09;5042965;28;45357;-80
2023/04/07 08:05:30;;;;;;;;;25.67;22.67;;;;;12.05;100.00;101403.41;5062164;28;46450;-80
2023/04/07 08:07:56;;;;;;;;;20.67;20.00;;;;;12.14;100.00;101412.25;5080333;28;45338;-80
2023/04/07 08:10:23;;;;;;;;;23.00;19.67;;;;;12.15;100.00;101401.44;5062978;28;45926;-82
2023/04/07 08:12:49;;;;;;;;;21.67;19.67;;;;;12.33;100.00;101411.91;5079862;28;45406;-79
2023/04/07 08:15:14;;;;;;;;;25.33;24.00;;;;;12.42;100.00;101410.06;5061853;28;52848;-81
2023/04/07 08:17:39;;;;;;;;;21.33;21.33;;;;;12.77;100.00;101406.28;5079934;28;45901;-79
2023/04/07 08:20:06;;;;;;;;;28.67;26.33;;;;;12.55;100.00;101425.53;5080078;28;45286;-82
2023/04/07 08:22:32;;;;;;;;;33.67;31.00;;;;;12.58;100.00;101421.69;5080318;28;45346;-82
2023/04/07 08:24:57;;;;;;;;;29.00;27.33;;;;;12.65;100.00;101422.66;5079847;28;45394;-80
2023/04/07 08:27:22;;;;;;;;;27.00;23.33;;;;;12.82;100.00;101419.94;5079771;28;45350;-80
2023/04/07 08:29:58;;;;;;;;;26.67;25.33;;;;;12.96;100.00;101421.06;5079573;28;55047;-78
2023/04/07 08:32:23;;;;;;;;;26.33;23.67;;;;;13.00;100.00;101425.03;5080273;28;45308;-79
2023/04/07 08:34:48;;;;;;;;;25.67;23.33;;;;;13.11;100.00;101424.66;5061269;28;58956;-79
2023/04/07 08:37:14;;;;;;;;;27.00;24.67;;;;;13.27;100.00;101425.59;5079506;28;45334;-79
2023/04/07 08:39:40;;;;;;;;;27.00;26.67;;;;;13.42;100.00;101428.34;5079886;28;45331;-80
2023/04/07 08:42:07;;;;;;;;;30.00;28.00;;;;;13.55;100.00;101427.78;5061923;28;45281;-81
2023/04/07 08:44:34;;;;;;;;;25.67;21.00;;;;;13.70;100.00;101427.84;5080601;28;45541;-77
2023/04/07 08:47:00;;;;;;;;;25.00;24.33;;;;;13.73;100.00;101427.50;5080405;28;46125;-78
2023/04/07 08:49:28;;;;;;;;;27.33;24.33;;;;;13.84;100.00;101436.94;5058257;28;45323;-77
2023/04/07 08:51:55;;;;;;;;;25.33;24.67;;;;;13.77;100.00;101430.66;5058741;28;45166;-77
2023/04/07 08:54:22;;;;;;;;;25.33;24.33;;;;;13.90;100.00;101424.69;5059912;28;45294;-79
2023/04/07 08:56:48;;;;;;;;;26.00;26.00;;;;;13.86;100.00;101436.75;5059620;28;45410;-79
2023/04/07 08:59:14;;;;;;;;;30.33;26.33;;;;;13.79;100.00;101423.25;5041534;28;45723;-78
2023/04/07 09:01:40;;;;;;;;;28.33;27.00;;;;;13.95;100.00;101440.19;5059908;28;45311;-78
2023/04/07 09:04:07;;;;;;;;;30.33;29.33;;;;;13.94;100.00;101439.34;5058034;28;47317;-78
2023/04/07 09:06:34;;;;;;;;;25.33;24.67;;;;;14.02;100.00;101449.16;5059534;28;45252;-77
2023/04/07 09:09:06;;;;;;;;;33.67;31.00;;;;;14.03;100.00;101439.28;5058163;28;45395;-77
2023/04/07 09:11:35;;;;;;;;;23.33;21.67;;;;;14.09;100.00;101439.38;5059635;28;45320;-77
2023/04/07 09:14:00;;;;;;;;;27.67;26.67;;;;;14.05;100.00;101430.06;5059374;28;45483;-78
2023/04/07 09:16:27;;;;;;;;;25.67;23.33;;;;;14.23;100.00;101439.59;5059195;28;45272;-77
2023/04/07 09:18:53;;;;;;;;;25.67;25.00;;;;;14.30;100.00;101437.84;5059280;28;45368;-77
2023/04/07 09:21:18;;;;;;;;;24.33;22.00;;;;;14.40;100.00;101448.31;5059106;28;46174;-77
2023/04/07 09:23:44;;;;;;;;;19.00;19.00;;;;;14.49;100.00;101441.84;5059146;28;45901;-78
2023/04/07 09:26:23;;;;;;;;;23.33;23.33;;;;;14.53;100.00;101445.00;5062365;28;45301;-79
2023/04/07 09:29:00;;;;;;;;;26.33;24.33;;;;;14.58;100.00;101450.59;5065030;28;45402;-78
2023/04/07 09:31:47;;;;;;;;;24.00;23.00;;;;;14.70;100.00;101442.94;5062117;28;45371;-78
2023/04/07 09:34:32;;;;;;;;;27.33;26.67;;;;;14.71;100.00;101454.50;5083143;28;45462;-78
2023/04/07 09:36:57;;;;;;;;;29.00;27.00;;;;;14.67;100.00;101455.88;5077080;28;45748;-79
2023/04/07 09:39:24;;;;;;;;;25.67;25.67;;;;;14.64;99.06;101452.56;5044639;28;45883;-79
2023/04/07 09:41:50;;;;;;;;;29.33;29.33;;;;;14.68;99.79;101454.88;5044866;28;45593;-80
2023/04/07 09:44:17;;;;;;;;;23.67;23.00;;;;;14.73;100.00;101442.59;5062943;28;45546;-78
2023/04/07 09:46:56;;;;;;;;;23.67;20.33;;;;;14.86;98.86;101446.50;5063151;28;45394;-80
2023/04/07 09:49:23;;;;;;;;;21.33;20.00;;;;;14.84;99.05;101441.34;5044295;28;45379;-79
2023/04/07 09:52:06;;;;;;;;;18.00;16.00;;;;;14.97;96.23;101447.88;5062624;28;45417;-79
2023/04/07 09:54:32;;;;;;;;;21.00;20.33;;;;;14.97;95.42;101448.69;5062437;28;45320;-79
2023/04/07 09:57:00;;;;;;;;;23.00;21.00;;;;;14.99;95.89;101452.03;5044272;28;47298;-80
2023/04/07 09:59:26;;;;;;;;;20.00;20.00;;;;;15.04;95.35;101447.94;5044259;28;45356;-79
2023/04/07 10:01:53;;;;;;;;;25.00;21.33;;;;;15.09;93.86;101451.72;5044241;28;45317;-79
2023/04/07 10:04:18;;;;;;;;;22.33;21.00;;;;;15.22;94.92;101445.72;5061748;28;45284;-78
2023/04/07 10:06:46;;;;;;;;;22.33;21.33;;;;;15.36;95.49;101440.50;5062162;28;46157;-77
2023/04/07 10:09:12;;;;;;;;;20.33;20.00;;;;;15.48;94.36;101447.00;5062505;28;45380;-78
2023/04/07 10:11:40;;;;;;;;;20.67;19.33;;;;;15.67;90.48;101441.22;5044367;28;45591;-79
2023/04/07 10:14:06;;;;;;;;;18.33;16.33;;;;;15.80;88.20;101441.34;5065647;28;45626;-79
2023/04/07 10:16:31;;;;;;;;;16.00;14.00;;;;;15.88;84.86;101446.59;5082102;28;45369;-80
2023/04/07 10:18:57;;;;;;;;;13.67;13.67;;;;;15.77;85.55;101405.06;5063894;28;45310;-82
2023/04/07 10:21:22;;;;;;;;;13.00;13.00;;;;;16.02;85.83;101423.44;5082694;28;45298;-80
2023/04/07 10:24:22;;;;;;;;;16.67;14.33;;;;;16.15;84.15;101444.16;5082538;28;45355;-81
2023/04/07 10:26:55;;;;;;;;;16.67;16.00;;;;;16.10;83.51;101435.06;5082617;28;45271;-80
2023/04/07 10:29:23;;;;;;;;;22.33;20.33;;;;;16.04;83.51;101444.69;5080612;28;45276;-79
2023/04/07 10:31:49;;;;;;;;;14.33;14.33;;;;;15.96;82.05;101432.25;5082316;27;45417;-80
2023/04/07 10:34:15;;;;;;;;;12.33;12.33;;;;;15.89;81.30;101434.84;5081978;27;45587;-79
2023/04/07 10:37:12;;;;;;;;;12.00;12.00;;;;;15.90;79.65;101441.03;5074170;27;45910;-80
2023/04/07 10:39:37;;;;;;;;;12.33;12.33;;;;;15.85;78.75;101446.13;5064144;28;45525;-78
2023/04/07 10:42:02;;;;;;;;;11.33;11.33;;;;;15.72;79.27;101426.25;5062444;28;45295;-79
2023/04/07 10:44:40;;;;;;;;;13.67;13.67;;;;;15.78;79.96;101446.91;5062470;28;45349;-78
2023/04/07 10:47:06;;;;;;;;;13.67;12.00;;;;;15.80;79.62;101449.38;5061516;28;46476;-78
2023/04/07 10:49:33;;;;;;;;;12.33;11.67;;;;;15.85;80.29;101451.50;5043492;28;45277;-78
2023/04/07 10:52:10;;;;;;;;;11.67;11.00;;;;;15.90;79.40;101449.09;5065946;28;45461;-82
2023/04/07 10:54:36;;;;;;;;;11.00;11.00;;;;;15.92;77.59;101443.53;5071566;28;45484;-80
2023/04/07 10:57:01;;;;;;;;;12.00;11.00;;;;;15.89;79.09;101440.19;5063215;28;46456;-79
2023/04/07 10:59:27;;;;;;;;;13.33;13.33;;;;;15.78;78.89;101427.34;5061650;28;45280;-79
2023/04/07 11:02:11;;;;;;;;;10.67;10.00;;;;;15.89;79.35;101440.19;5060280;28;45328;-79
2023/04/07 11:04:38;;;;;;;;;12.33;11.00;;;;;16.08;78.99;101439.78;5060048;28;47123;-79
2023/04/07 11:07:03;;;;;;;;;9.67;9.00;;;;;16.40;80.48;101433.00;5061627;28;46407;-80
2023/04/07 11:09:28;;;;;;;;;11.67;11.67;;;;;16.70;79.29;101423.88;5065348;28;45480;-79
2023/04/07 11:11:54;;;;;;;;;10.67;10.67;;;;;16.92;76.87;101431.81;5062275;28;45314;-79